This is the latest recevied weather packets stored in our database for station/object IK2ILW-4. If no packets are shown the sender has not sent any weather packets the latest 10 day(s).
| Time | Temp. | Humidity | Pressure | Rain* | Wind** | Luminosity | Snow |
|---|---|---|---|---|---|---|---|
| 1787674368 | 20° C | 80% | 1017.6 hPa | 39.37 mm | - | 276 W/m² | - |
| 1787674061 | 20° C | 79% | 1017.6 hPa | 39.37 mm | - | 274 W/m² | - |
| 1787673770 | 20.56° C | 78% | 1017.6 hPa | 39.37 mm | - | 292 W/m² | - |
| 1787673464 | 20° C | 80% | 1017.6 hPa | 39.37 mm | - | 309 W/m² | - |
| 1787673161 | 20.56° C | 79% | 1017.6 hPa | 39.37 mm | - | 320 W/m² | - |
| 1787672868 | 20.56° C | 78% | 1017.6 hPa | 39.37 mm | - | 334 W/m² | - |
| 1787672568 | 20° C | 81% | 1017.6 hPa | 39.37 mm | - | 345 W/m² | - |
| 1787672264 | 20° C | 78% | 1017.6 hPa | 39.37 mm | - | 362 W/m² | - |
| 1787671971 | 20° C | 81% | 1017.6 hPa | 39.37 mm | - | 388 W/m² | - |
| 1787671671 | 19.44° C | 81% | 1016.8 hPa | 39.37 mm | - | 420 W/m² | - |
| 1787671366 | 18.33° C | 85% | 1016.8 hPa | 39.37 mm | - | 524 W/m² | - |
| 1787671072 | 17.78° C | 84% | 1016.8 hPa | 39.37 mm | - | 329 W/m² | - |
| 1787670767 | 17.78° C | 84% | 1016.7 hPa | 39.37 mm | - | 295 W/m² | - |
| 1787670464 | 17.78° C | 84% | 1016.7 hPa | 39.37 mm | - | 385 W/m² | - |
| 1787670173 | 18.33° C | 84% | 1016.7 hPa | 39.37 mm | - | 156 W/m² | - |
| 1787669866 | 18.33° C | 84% | 1017.5 hPa | 39.37 mm | - | 378 W/m² | - |
| 1787669558 | 18.89° C | 81% | 1017.5 hPa | 39.37 mm | - | 188 W/m² | - |
| 1787669271 | 19.44° C | 80% | 1017.5 hPa | 39.37 mm | - | 250 W/m² | - |
| 1787668964 | 19.44° C | 81% | 1017.4 hPa | 39.37 mm | - | 327 W/m² | - |
| 1787668661 | 18.89° C | 81% | 1017.4 hPa | 39.37 mm | - | 591 W/m² | - |
| 1787668358 | 18.89° C | 82% | 1017.4 hPa | 39.37 mm | - | 550 W/m² | - |
| 1787668065 | 18.89° C | 81% | 1017.3 hPa | 39.37 mm | - | 564 W/m² | - |
| 1787667763 | 18.89° C | 83% | 1017.3 hPa | 39.37 mm | - | 476 W/m² | - |
| 1787667471 | 18.89° C | 81% | 1017.3 hPa | 39.37 mm | - | 148 W/m² | - |
| 1787667169 | 18.33° C | 83% | 1016.2 hPa | 39.37 mm | - | 584 W/m² | - |
* Rain since midnight (hover to see other rain measurements)
** Current wind speed in m/s (hover to see current wind gust speed)